createdAt,value
2018-04-19T00:00:13.506Z,3.87
2018-04-19T00:02:43.877Z,4.10
2018-04-19T00:05:14.966Z,4.70
2018-04-19T00:07:45.357Z,4.47
2018-04-19T00:10:15.720Z,4.60
2018-04-19T00:12:46.087Z,4.23
2018-04-19T00:15:17.194Z,4.13
2018-04-19T00:17:47.553Z,4.07
2018-04-19T00:20:18.681Z,4.20
2018-04-19T00:22:49.069Z,4.40
2018-04-19T00:25:19.430Z,4.33
2018-04-19T00:27:49.789Z,3.63
2018-04-19T00:30:20.955Z,4.33
2018-04-19T00:32:51.336Z,4.20
2018-04-19T00:35:21.699Z,4.40
2018-04-19T00:37:52.074Z,4.20
2018-04-19T00:40:22.441Z,4.10
2018-04-19T00:42:52.751Z,4.40
2018-04-19T00:45:23.110Z,4.00
2018-04-19T00:47:53.477Z,4.00
2018-04-19T00:50:24.044Z,4.30
2018-04-19T00:53:12.177Z,4.07
2018-04-19T00:55:43.288Z,4.43
2018-04-19T00:58:13.655Z,4.60
2018-04-19T01:00:44.799Z,4.00
2018-04-19T01:03:15.914Z,4.33
2018-04-19T01:05:46.261Z,3.90
2018-04-19T01:08:16.653Z,4.00
2018-04-19T01:10:47.021Z,3.63
2018-04-19T01:13:17.375Z,4.53
2018-04-19T01:15:49.802Z,4.30
2018-04-19T01:18:20.157Z,4.10
2018-04-19T01:20:50.531Z,4.17
2018-04-19T01:23:20.932Z,4.80
2018-04-19T01:25:51.276Z,4.57
2018-04-19T01:28:21.636Z,4.40
2018-04-19T01:30:52.218Z,4.73
2018-04-19T01:33:28.715Z,4.57
2018-04-19T01:36:28.763Z,4.17
2018-04-19T01:38:59.073Z,4.20
2018-04-19T01:41:29.380Z,4.50
2018-04-19T01:43:59.766Z,4.50
2018-04-19T01:49:21.962Z,4.33
2018-04-19T01:51:52.299Z,4.37
2018-04-19T01:54:22.665Z,5.00
2018-04-19T01:56:53.818Z,5.03
2018-04-19T01:59:24.170Z,4.73
2018-04-19T02:01:54.753Z,4.30
2018-04-19T02:04:25.883Z,4.70
2018-04-19T02:06:56.246Z,4.67
2018-04-19T02:09:26.553Z,4.83
2018-04-19T02:11:56.971Z,4.57
2018-04-19T02:14:27.324Z,4.57
2018-04-19T02:16:58.715Z,4.53
2018-04-19T02:19:29.098Z,4.23
2018-04-19T02:21:59.457Z,4.40
2018-04-19T02:24:30.842Z,4.57
2018-04-19T02:27:01.170Z,4.77
2018-04-19T02:29:32.296Z,5.40
2018-04-19T02:32:02.648Z,4.90
2018-04-19T02:34:33.033Z,4.70
2018-04-19T02:37:03.338Z,4.70
2018-04-19T02:39:33.650Z,5.10
2018-04-19T02:42:04.027Z,5.03
2018-04-19T02:44:34.365Z,4.57
2018-04-19T02:47:05.494Z,4.53
2018-04-19T02:49:35.890Z,5.20
2018-04-19T02:52:06.199Z,4.90
2018-04-19T02:54:37.561Z,4.17
2018-04-19T02:57:27.045Z,5.20
2018-04-19T02:59:57.388Z,5.17
2018-04-19T03:02:27.754Z,4.87
2018-04-19T03:04:58.148Z,4.73
2018-04-19T03:07:28.455Z,4.83
2018-04-19T03:09:58.799Z,4.97
2018-04-19T03:12:29.240Z,5.00
2018-04-19T03:14:59.525Z,4.60
2018-04-19T03:17:30.909Z,5.03
2018-04-19T03:20:01.272Z,5.17
2018-04-19T03:22:31.630Z,5.27
2018-04-19T03:25:04.037Z,4.93
2018-04-19T03:27:34.401Z,4.80
2018-04-19T03:30:04.970Z,5.33
2018-04-19T03:32:35.324Z,5.40
2018-04-19T03:35:06.472Z,4.90
2018-04-19T03:37:37.591Z,5.10
2018-04-19T03:40:07.954Z,4.67
2018-04-19T03:42:38.322Z,4.90
2018-04-19T03:45:28.056Z,5.23
2018-04-19T03:47:58.457Z,5.63
2018-04-19T03:50:28.822Z,5.13
2018-04-19T03:52:59.183Z,4.83
2018-04-19T03:55:30.591Z,4.97
2018-04-19T03:58:00.928Z,5.00
2018-04-19T04:00:31.279Z,5.47
2018-04-19T04:03:03.682Z,5.53
2018-04-19T04:05:34.034Z,4.90
2018-04-19T04:08:04.402Z,4.27
2018-04-19T04:10:42.095Z,5.27
2018-04-19T04:13:16.740Z,5.60
2018-04-19T04:15:47.109Z,5.40
2018-04-19T04:19:12.188Z,4.87
2018-04-19T04:22:37.387Z,4.40
2018-04-19T04:25:07.767Z,5.37
2018-04-19T04:27:38.108Z,5.20
2018-04-19T04:30:08.462Z,5.50
2018-04-19T04:32:39.050Z,4.80
2018-04-19T04:35:09.399Z,4.87
2018-04-19T04:37:39.761Z,5.47
2018-04-19T04:40:10.148Z,5.57
2018-04-19T04:42:40.514Z,5.47
2018-04-19T04:45:11.903Z,5.67
2018-04-19T04:47:43.302Z,5.10
2018-04-19T04:50:13.659Z,5.27
2018-04-19T04:52:44.019Z,5.70
2018-04-19T04:55:14.415Z,5.87
2018-04-19T04:57:44.773Z,5.00
2018-04-19T05:00:15.138Z,5.50
2018-04-19T05:02:45.503Z,5.40
2018-04-19T05:05:16.624Z,5.47
2018-04-19T05:07:46.975Z,5.40
2018-04-19T05:10:17.366Z,5.67
2018-04-19T05:12:47.711Z,5.50
2018-04-19T05:15:18.835Z,5.67
2018-04-19T05:17:49.197Z,5.37
2018-04-19T05:20:19.546Z,5.63
2018-04-19T05:22:50.633Z,5.40
2018-04-19T05:25:20.989Z,5.97
2018-04-19T05:27:51.347Z,5.83
2018-04-19T05:30:23.754Z,6.13
2018-04-19T05:32:54.132Z,6.00
2018-04-19T05:35:24.499Z,5.97
2018-04-19T05:37:54.845Z,5.53
2018-04-19T05:40:26.004Z,5.63
2018-04-19T05:42:57.119Z,5.70
2018-04-19T05:45:27.456Z,5.50
2018-04-19T05:47:57.827Z,5.97
2018-04-19T05:50:28.185Z,5.30
2018-04-19T05:52:58.550Z,5.30
2018-04-19T05:55:28.922Z,4.93
2018-04-19T05:58:20.700Z,5.00
2018-04-19T06:00:51.087Z,5.63
2018-04-19T06:03:21.438Z,5.63
2018-04-19T06:05:51.795Z,4.67
2018-04-19T06:08:22.184Z,5.70
2018-04-19T06:13:40.264Z,5.50
2018-04-19T06:16:11.389Z,5.10
2018-04-19T06:18:41.765Z,5.17
2018-04-19T06:21:12.153Z,5.23
2018-04-19T06:23:43.259Z,4.80
2018-04-19T06:26:14.649Z,4.90
2018-04-19T06:28:45.746Z,4.90
2018-04-19T06:31:23.254Z,4.90
2018-04-19T06:33:53.610Z,5.07
2018-04-19T06:36:24.726Z,5.60
2018-04-19T06:38:56.040Z,5.33
2018-04-19T06:41:26.439Z,4.97
2018-04-19T06:43:57.564Z,5.07
2018-04-19T06:46:27.930Z,4.50
2018-04-19T06:48:58.336Z,4.50
2018-04-19T06:51:39.846Z,5.00
2018-04-19T06:54:10.237Z,4.50
2018-04-19T06:56:41.369Z,4.47
2018-04-19T06:59:11.724Z,4.93
2018-04-19T07:01:42.107Z,4.73
2018-04-19T07:04:12.489Z,4.87
2018-04-19T07:06:42.858Z,5.03
2018-04-19T07:28:56.506Z,4.70
2018-04-19T07:34:45.869Z,4.33
2018-04-19T07:40:35.270Z,4.07
2018-04-19T07:46:24.655Z,3.57
2018-04-19T07:52:13.980Z,3.60
2018-04-19T07:54:44.576Z,3.87
2018-04-19T07:57:14.984Z,3.93
2018-04-19T07:59:45.365Z,3.70
2018-04-19T08:02:16.488Z,4.30
2018-04-19T08:04:46.858Z,4.83
2018-04-19T08:07:17.254Z,4.13
2018-04-19T08:09:48.385Z,4.10
2018-04-19T08:12:18.731Z,4.50
2018-04-19T08:14:49.228Z,4.30
2018-04-19T08:17:19.498Z,4.47
2018-04-19T08:19:49.852Z,4.70
2018-04-19T08:22:20.361Z,4.63
2018-04-19T08:24:50.788Z,4.47
2018-04-19T08:27:21.184Z,4.70
2018-04-19T08:29:52.347Z,4.53
2018-04-19T08:32:22.709Z,4.90
2018-04-19T08:35:00.252Z,4.57
2018-04-19T08:37:31.391Z,4.47
2018-04-19T08:40:01.732Z,4.23
2018-04-19T08:42:32.088Z,4.27
2018-04-19T08:45:03.481Z,4.10
2018-04-19T08:47:33.843Z,4.20
2018-04-19T08:50:04.247Z,4.00
2018-04-19T08:52:34.585Z,3.63
2018-04-19T08:55:04.953Z,3.60
2018-04-19T08:57:42.509Z,3.93
2018-04-19T09:00:13.627Z,3.73
2018-04-19T09:02:44.033Z,4.00
2018-04-19T09:05:15.129Z,3.50
2018-04-19T09:07:45.473Z,4.00
2018-04-19T09:10:15.818Z,3.70
2018-04-19T09:12:48.233Z,3.37
2018-04-19T09:15:18.596Z,3.60
2018-04-19T09:17:48.968Z,3.90
2018-04-19T09:20:19.341Z,3.50
2018-04-19T09:22:49.835Z,3.63
2018-04-19T09:25:20.283Z,3.33
2018-04-19T09:27:51.445Z,3.70
2018-04-19T09:30:22.064Z,3.37
2018-04-19T09:32:52.414Z,3.57
2018-04-19T09:35:23.829Z,3.80
2018-04-19T09:37:54.910Z,3.97
2018-04-19T09:40:25.259Z,3.43
2018-04-19T09:42:56.662Z,3.57
2018-04-19T09:45:28.043Z,3.40
2018-04-19T09:47:58.430Z,3.50
2018-04-19T09:50:29.574Z,3.60
2018-04-19T09:52:59.936Z,3.70
2018-04-19T09:55:37.470Z,3.83
2018-04-19T09:58:10.702Z,3.53
2018-04-19T10:00:47.060Z,3.23
2018-04-19T10:03:20.162Z,3.53
2018-04-19T10:05:50.506Z,4.03
2018-04-19T10:08:39.998Z,3.47
2018-04-19T10:11:10.367Z,4.13
2018-04-19T10:13:40.709Z,3.77
2018-04-19T10:16:11.166Z,3.63
2018-04-19T10:18:41.448Z,3.60
2018-04-19T10:21:12.801Z,3.90
2018-04-19T10:23:43.940Z,3.33
2018-04-19T10:26:15.089Z,3.60
2018-04-19T10:28:45.455Z,3.57
2018-04-19T10:31:37.002Z,3.57
2018-04-19T10:34:07.668Z,3.93
2018-04-19T10:36:38.740Z,3.57
2018-04-19T10:39:13.231Z,3.73
2018-04-19T10:41:43.535Z,4.20
2018-04-19T10:44:13.891Z,3.60
2018-04-19T10:46:44.289Z,3.60
2018-04-19T10:49:14.651Z,3.90
2018-04-19T10:51:44.961Z,3.50
2018-04-19T10:54:15.348Z,3.53
2018-04-19T10:56:45.687Z,3.37
2018-04-19T10:59:16.043Z,3.57
2018-04-19T11:01:46.457Z,3.50
2018-04-19T11:04:19.508Z,3.57
2018-04-19T11:06:49.859Z,3.43
2018-04-19T11:09:20.241Z,3.80
2018-04-19T11:11:50.583Z,3.70
2018-04-19T11:14:21.157Z,3.50
2018-04-19T11:16:51.551Z,3.30
2018-04-19T11:19:23.958Z,3.23
2018-04-19T11:21:55.071Z,3.47
2018-04-19T11:24:25.435Z,3.23
2018-04-19T11:26:56.548Z,3.60
2018-04-19T11:29:26.885Z,3.60
2018-04-19T11:31:58.037Z,3.23
2018-04-19T11:34:29.116Z,3.83
2018-04-19T11:36:59.486Z,3.73
2018-04-19T11:39:30.891Z,3.57
2018-04-19T11:42:01.317Z,3.87
2018-04-19T11:44:31.607Z,2.90
2018-04-19T11:47:02.750Z,3.83
2018-04-19T11:49:33.836Z,3.30
2018-04-19T11:52:07.267Z,2.93
2018-04-19T11:57:21.839Z,3.60
2018-04-19T11:59:52.223Z,3.23
2018-04-19T12:02:22.596Z,3.60
2018-04-19T12:04:52.954Z,2.90
2018-04-19T12:07:24.100Z,3.20
2018-04-19T12:09:55.207Z,3.17
2018-04-19T12:12:25.552Z,3.20
2018-04-19T12:14:55.928Z,3.57
2018-04-19T12:17:29.362Z,3.10
2018-04-19T12:19:59.721Z,3.20
2018-04-19T12:22:30.866Z,3.37
2018-04-19T12:25:01.996Z,2.77
2018-04-19T12:27:33.104Z,2.93
2018-04-19T12:30:03.490Z,3.63
2018-04-19T12:32:34.852Z,3.37
2018-04-19T12:35:07.251Z,3.00
2018-04-19T12:37:38.739Z,3.50
2018-04-19T12:40:09.028Z,2.97
2018-04-19T12:42:58.779Z,3.27
2018-04-19T12:45:29.158Z,3.10
2018-04-19T12:47:59.513Z,2.80
2018-04-19T12:50:29.888Z,3.23
2018-04-19T12:53:00.246Z,3.40
2018-04-19T12:55:30.595Z,3.03
2018-04-19T12:58:01.712Z,3.57
2018-04-19T13:00:32.046Z,3.07
2018-04-19T13:03:03.173Z,3.07
2018-04-19T13:05:33.545Z,3.10
2018-04-19T13:08:03.884Z,3.00
2018-04-19T13:10:40.406Z,3.30
2018-04-19T13:13:11.533Z,3.95
2018-04-19T13:15:41.877Z,3.13
2018-04-19T13:18:13.048Z,3.00
2018-04-19T13:20:43.360Z,3.17
2018-04-19T13:23:14.484Z,3.10
2018-04-19T13:25:44.859Z,3.27
2018-04-19T13:28:15.189Z,3.40
2018-04-19T13:30:52.738Z,3.10
2018-04-19T13:33:23.865Z,3.30
2018-04-19T13:35:56.249Z,3.20
2018-04-19T13:38:27.381Z,3.43
2018-04-19T13:40:57.722Z,3.20
2018-04-19T13:43:28.797Z,3.13
2018-04-19T13:45:59.188Z,3.10
2018-04-19T13:48:30.317Z,3.43
2018-04-19T13:51:00.673Z,3.00
2018-04-19T13:53:31.820Z,3.07
2018-04-19T13:56:02.941Z,3.20
2018-04-19T13:58:33.287Z,3.17
2018-04-19T14:01:04.423Z,3.40
2018-04-19T14:03:35.525Z,3.07
2018-04-19T14:06:05.863Z,3.07
2018-04-19T14:08:36.245Z,3.20
2018-04-19T14:11:06.582Z,3.23
2018-04-19T14:13:36.947Z,3.17
2018-04-19T14:16:07.330Z,3.10
2018-04-19T14:18:37.691Z,3.10
2018-04-19T14:21:08.076Z,3.20
2018-04-19T14:23:38.400Z,3.30
2018-04-19T14:26:08.769Z,3.07
2018-04-19T14:28:39.108Z,3.40
2018-04-19T14:31:09.527Z,3.33
2018-04-19T14:33:39.853Z,3.40
2018-04-19T14:36:11.215Z,3.13
2018-04-19T14:38:41.576Z,3.13
2018-04-19T14:41:11.912Z,3.03
2018-04-19T14:43:44.318Z,2.67
2018-04-19T14:46:14.682Z,3.33
2018-04-19T14:48:45.807Z,3.27
2018-04-19T14:51:17.188Z,3.60
2018-04-19T14:53:47.565Z,2.93
2018-04-19T14:56:17.925Z,3.40
2018-04-19T14:58:49.052Z,3.70
2018-04-19T15:01:19.435Z,3.50
2018-04-19T15:03:56.941Z,3.23
2018-04-19T15:06:47.725Z,3.90
2018-04-19T15:09:18.087Z,3.63
2018-04-19T15:11:48.424Z,3.57
2018-04-19T15:14:18.805Z,3.67
2018-04-19T15:16:49.168Z,3.57
2018-04-19T15:19:19.505Z,3.30
2018-04-19T15:21:49.884Z,3.77
2018-04-19T15:24:22.275Z,3.70
2018-04-19T15:26:52.620Z,3.70
2018-04-19T15:29:22.981Z,4.13
2018-04-19T15:31:54.134Z,3.60
2018-04-19T15:34:24.466Z,3.60
2018-04-19T15:36:54.844Z,3.83
2018-04-19T15:39:25.187Z,4.10
2018-04-19T15:41:56.304Z,4.00
2018-04-19T15:44:26.665Z,4.20
2018-04-19T15:46:57.817Z,3.47
2018-04-19T15:49:28.916Z,3.27
2018-04-19T15:51:59.255Z,3.67
2018-04-19T15:54:29.595Z,3.43
2018-04-19T15:57:00.720Z,3.60
2018-04-19T15:59:31.094Z,3.90
2018-04-19T16:02:01.434Z,3.50
2018-04-19T16:07:14.997Z,3.83
2018-04-19T16:09:45.369Z,3.70
2018-04-19T16:12:15.697Z,3.67
2018-04-19T16:14:46.839Z,3.93
2018-04-19T16:17:17.966Z,3.90
2018-04-19T16:19:48.325Z,3.57
2018-04-19T16:22:18.707Z,4.03
2018-04-19T16:24:49.120Z,4.10
2018-04-19T16:27:19.700Z,3.20
2018-04-19T16:29:51.868Z,3.80
2018-04-19T16:32:25.036Z,3.53
2018-04-19T16:34:55.375Z,3.63
2018-04-19T16:37:26.537Z,4.07
2018-04-19T16:39:57.641Z,3.53
2018-04-19T16:42:28.004Z,3.67
2018-04-19T16:45:00.182Z,3.60
2018-04-19T16:47:30.535Z,3.63
2018-04-19T16:50:00.888Z,3.80
2018-04-19T16:52:31.281Z,3.70
2018-04-19T16:55:01.594Z,3.70
2018-04-19T16:57:31.965Z,3.33
2018-04-19T17:00:02.341Z,3.73
2018-04-19T17:02:32.960Z,3.83
2018-04-19T17:05:03.277Z,4.47
2018-04-19T17:07:34.426Z,4.13
2018-04-19T17:10:04.796Z,3.70
2018-04-19T17:12:42.495Z,3.50
2018-04-19T17:15:35.475Z,3.70
2018-04-19T17:18:05.876Z,3.53
2018-04-19T17:20:56.323Z,3.60
2018-04-19T17:23:27.477Z,4.37
2018-04-19T17:25:58.590Z,3.93
2018-04-19T17:28:28.968Z,3.83
2018-04-19T17:30:59.366Z,4.67
2018-04-19T17:33:29.744Z,3.93
2018-04-19T17:36:05.217Z,4.17
2018-04-19T17:38:35.597Z,4.30
2018-04-19T17:41:06.013Z,4.43
2018-04-19T17:43:36.366Z,4.23
2018-04-19T17:46:06.755Z,4.67
2018-04-19T17:48:37.119Z,4.23
2018-04-19T17:51:26.876Z,4.63
2018-04-19T17:53:57.253Z,5.20
2018-04-19T17:56:27.652Z,6.07
2018-04-19T17:58:58.050Z,4.77
2018-04-19T18:01:28.417Z,4.80
2018-04-19T18:03:58.791Z,4.83
2018-04-19T18:06:29.949Z,4.07
2018-04-19T18:09:00.274Z,4.07
2018-04-19T18:11:30.636Z,3.93
2018-04-19T18:14:01.025Z,4.50
2018-04-19T18:16:33.406Z,4.60
2018-04-19T18:19:03.788Z,4.07
2018-04-19T18:21:34.175Z,4.43
2018-04-19T18:24:04.542Z,4.20
2018-04-19T18:26:34.897Z,4.00
2018-04-19T18:29:07.066Z,4.43
2018-04-19T18:31:37.430Z,4.33
2018-04-19T18:34:07.782Z,4.47
2018-04-19T18:36:38.163Z,4.60
2018-04-19T18:39:08.488Z,4.87
2018-04-19T18:41:38.854Z,4.30
2018-04-19T18:44:09.192Z,4.40
2018-04-19T18:46:39.561Z,4.07
2018-04-19T18:49:09.920Z,4.57
2018-04-19T18:51:40.281Z,4.10
2018-04-19T18:54:10.932Z,4.07
2018-04-19T18:56:42.057Z,4.40
2018-04-19T18:59:13.415Z,4.37
2018-04-19T19:01:44.537Z,4.03
2018-04-19T19:04:14.905Z,4.13
2018-04-19T19:06:45.249Z,4.13
2018-04-19T19:09:35.952Z,3.70
2018-04-19T19:12:06.343Z,4.37
2018-04-19T19:14:37.474Z,5.20
2018-04-19T19:18:02.400Z,4.83
2018-04-19T19:20:32.796Z,7.37
2018-04-19T19:23:03.133Z,5.20
2018-04-19T19:25:34.481Z,4.80
2018-04-19T19:28:05.594Z,4.20
2018-04-19T19:30:35.955Z,4.33
2018-04-19T19:33:06.350Z,4.37
2018-04-19T19:35:36.707Z,4.43
2018-04-19T19:38:07.825Z,4.50
2018-04-19T19:40:38.218Z,4.30
2018-04-19T19:43:14.715Z,4.57
2018-04-19T19:45:45.056Z,4.27
2018-04-19T19:48:15.452Z,3.93
2018-04-19T19:50:45.814Z,4.20
2018-04-19T19:53:16.179Z,4.40
2018-04-19T19:55:46.566Z,4.13
2018-04-19T19:58:17.708Z,4.27
2018-04-19T20:00:48.017Z,4.47
2018-04-19T20:03:18.361Z,4.93
2018-04-19T20:05:48.746Z,4.37
2018-04-19T20:08:19.079Z,4.57
2018-04-19T20:10:56.571Z,4.70
2018-04-19T20:13:48.342Z,4.90
2018-04-19T20:16:20.518Z,4.73
2018-04-19T20:18:51.651Z,4.93
2018-04-19T20:24:08.669Z,4.53
2018-04-19T20:26:39.010Z,4.40
2018-04-19T20:29:09.353Z,4.70
2018-04-19T20:31:40.482Z,4.67
2018-04-19T20:34:11.604Z,4.37
2018-04-19T20:36:41.945Z,4.63
2018-04-19T20:39:13.092Z,5.27
2018-04-19T20:41:44.219Z,5.40
2018-04-19T20:44:14.585Z,5.00
2018-04-19T20:46:44.917Z,4.97
2018-04-19T20:49:15.275Z,5.33
2018-04-19T20:51:51.790Z,5.03
2018-04-19T20:54:22.898Z,5.63
2018-04-19T20:56:53.246Z,4.80
2018-04-19T20:59:23.611Z,5.87
2018-04-19T21:01:53.972Z,5.37
2018-04-19T21:04:24.320Z,5.87
2018-04-19T21:06:54.699Z,5.37
2018-04-19T21:09:25.037Z,5.33
2018-04-19T21:12:15.505Z,5.40
2018-04-19T21:14:45.855Z,5.17
2018-04-19T21:17:20.283Z,4.90
2018-04-19T21:20:12.029Z,4.50
2018-04-19T21:22:42.384Z,4.67
2018-04-19T21:25:13.508Z,5.03
2018-04-19T21:27:43.889Z,4.73
2018-04-19T21:30:15.232Z,4.83
2018-04-19T21:32:45.837Z,4.60
2018-04-19T21:35:16.990Z,4.87
2018-04-19T21:37:48.114Z,4.60
2018-04-19T21:40:19.236Z,5.03
2018-04-19T21:42:49.618Z,5.20
2018-04-19T21:45:19.958Z,5.20
2018-04-19T21:47:54.406Z,5.20
2018-04-19T21:50:24.759Z,4.70
2018-04-19T21:52:55.113Z,4.93
2018-04-19T21:55:25.471Z,5.57
2018-04-19T21:58:18.010Z,5.57
2018-04-19T22:01:07.475Z,5.20
2018-04-19T22:03:38.881Z,5.47
2018-04-19T22:06:09.232Z,4.40
2018-04-19T22:08:39.583Z,4.90
2018-04-19T22:11:16.100Z,4.70
2018-04-19T22:13:47.225Z,5.37
2018-04-19T22:16:17.581Z,4.93
2018-04-19T22:18:48.734Z,5.23
2018-04-19T22:21:19.865Z,4.60
2018-04-19T22:23:50.226Z,4.43
2018-04-19T22:26:20.593Z,5.17
2018-04-19T22:28:50.937Z,5.40
2018-04-19T22:31:22.011Z,5.03
2018-04-19T22:33:52.340Z,4.30
2018-04-19T22:36:22.945Z,4.20
2018-04-19T22:38:54.068Z,4.03
2018-04-19T22:41:24.454Z,4.20
2018-04-19T22:43:58.907Z,4.20
2018-04-19T22:46:29.281Z,3.83
2018-04-19T22:48:59.645Z,4.60
2018-04-19T22:51:49.406Z,5.00
2018-04-19T22:54:19.745Z,4.83
2018-04-19T22:57:10.518Z,5.13
2018-04-19T22:59:40.880Z,4.27
2018-04-19T23:02:12.256Z,4.20
2018-04-19T23:04:42.833Z,5.13
2018-04-19T23:07:13.197Z,4.60
2018-04-19T23:09:43.539Z,4.30
2018-04-19T23:12:13.915Z,4.73
2018-04-19T23:14:44.256Z,4.50
2018-04-19T23:17:14.624Z,5.00
2018-04-19T23:19:45.001Z,4.67
2018-04-19T23:22:15.363Z,5.33
2018-04-19T23:24:45.703Z,4.80
2018-04-19T23:27:17.764Z,4.87
2018-04-19T23:29:48.121Z,4.70
2018-04-19T23:32:18.482Z,4.30
2018-04-19T23:35:10.282Z,4.70
2018-04-19T23:37:40.629Z,5.03
2018-04-19T23:40:18.148Z,4.93
2018-04-19T23:42:48.489Z,4.67
2018-04-19T23:45:18.853Z,5.00
2018-04-19T23:47:49.229Z,4.63
2018-04-19T23:50:19.537Z,4.57
2018-04-19T23:52:49.898Z,4.90
2018-04-19T23:55:21.041Z,5.10
2018-04-19T23:57:52.144Z,5.10
